Time;durP1;ratioP1;P1;durP2;ratioP2;P2;SDS_P1;SDS_P2;PMS_P1;PMS_P2;Temp;Humidity;BMP_temperature;BMP_pressure;BME280_temperature;BME280_humidity;BME280_pressure;Samples;Min_cycle;Max_cycle;Signal;HPM_P1;HPM_P2
2021/06/24 00:00:55;;;;;;;1999.90;999.90;;;17.10;99.90;;;;;;5080170;28;20180;-75
2021/06/24 00:03:24;;;;;;;1999.90;999.90;;;17.10;99.90;;;;;;5099363;28;20576;-75
2021/06/24 00:05:50;;;;;;;1999.90;999.90;;;17.10;99.90;;;;;;5104020;28;20201;-75
2021/06/24 00:08:16;;;;;;;1999.90;999.90;;;17.10;99.90;;;;;;5092950;28;20686;-75
2021/06/24 00:10:44;;;;;;;1999.90;999.90;;;17.10;99.90;;;;;;5086655;28;20648;-75
2021/06/24 00:13:10;;;;;;;1999.90;999.90;;;17.10;99.90;;;;;;5089008;28;20652;-75
2021/06/24 00:15:36;;;;;;;1999.90;999.90;;;17.00;99.90;;;;;;5088558;28;20203;-75
2021/06/24 00:18:02;;;;;;;1999.90;999.90;;;17.00;99.90;;;;;;5100748;28;20257;-75
2021/06/24 00:20:28;;;;;;;1999.90;999.90;;;17.00;99.90;;;;;;5082601;28;20178;-75
2021/06/24 00:22:53;;;;;;;1999.90;999.90;;;17.00;99.90;;;;;;5101917;28;20664;-75
2021/06/24 00:25:19;;;;;;;1999.90;999.90;;;17.00;99.90;;;;;;5095889;28;20192;-75
2021/06/24 00:27:45;;;;;;;1999.90;999.90;;;17.00;99.90;;;;;;5089067;28;20226;-75
2021/06/24 00:30:12;;;;;;;1999.90;999.90;;;17.00;99.90;;;;;;5098039;28;20174;-75
2021/06/24 00:32:38;;;;;;;1999.90;999.90;;;17.00;99.90;;;;;;5095626;28;20199;-75
2021/06/24 00:35:04;;;;;;;1999.90;999.90;;;16.90;99.90;;;;;;5100077;28;20172;-75
2021/06/24 00:37:30;;;;;;;1999.90;999.90;;;16.90;99.90;;;;;;5094679;28;20221;-75
2021/06/24 00:39:57;;;;;;;1999.90;999.90;;;16.90;99.90;;;;;;5108404;28;20166;-75
2021/06/24 00:42:24;;;;;;;1999.90;999.90;;;16.90;99.90;;;;;;5111056;28;20247;-75
2021/06/24 00:44:50;;;;;;;1999.90;999.90;;;16.80;99.90;;;;;;5093808;28;20276;-75
2021/06/24 00:47:16;;;;;;;1999.90;999.90;;;16.90;99.90;;;;;;5093977;28;20306;-75
2021/06/24 00:49:41;;;;;;;1999.90;999.90;;;16.90;99.90;;;;;;5092202;28;20164;-75
2021/06/24 00:52:07;;;;;;;1999.90;999.90;;;16.90;99.90;;;;;;5092534;28;20176;-75
2021/06/24 00:54:33;;;;;;;1999.90;999.90;;;16.80;99.90;;;;;;5112575;28;20185;-75
2021/06/24 00:56:59;;;;;;;1999.90;999.90;;;16.70;99.90;;;;;;5096327;28;20706;-75
2021/06/24 00:59:25;;;;;;;1999.90;999.90;;;16.60;99.90;;;;;;5114502;28;20227;-76
2021/06/24 01:01:51;;;;;;;1999.90;999.90;;;16.70;99.90;;;;;;5116200;28;20175;-75
2021/06/24 01:04:23;;;;;;;1999.90;999.90;;;16.70;99.90;;;;;;5096941;28;20210;-75
2021/06/24 01:06:50;;;;;;;1999.90;999.90;;;16.70;99.90;;;;;;5114543;28;20186;-75
2021/06/24 01:09:16;;;;;;;1999.90;999.90;;;16.70;99.90;;;;;;5096511;28;20678;-75
2021/06/24 01:11:42;;;;;;;1999.90;999.90;;;16.70;99.90;;;;;;5114535;28;20215;-75
2021/06/24 01:14:09;;;;;;;1999.90;999.90;;;16.70;99.90;;;;;;5114342;28;20285;-75
2021/06/24 01:16:35;;;;;;;1999.90;999.90;;;16.80;99.90;;;;;;5114469;28;20218;-75
2021/06/24 01:19:01;;;;;;;1999.90;999.90;;;16.80;99.90;;;;;;5113946;28;20212;-75
2021/06/24 01:21:27;;;;;;;1999.90;999.90;;;16.80;99.90;;;;;;5114332;28;20661;-75
2021/06/24 01:23:52;;;;;;;1999.90;999.90;;;16.70;99.90;;;;;;5114278;28;20173;-75
2021/06/24 01:26:18;;;;;;;1999.90;999.90;;;16.70;99.90;;;;;;5114042;28;20755;-75
2021/06/24 01:28:44;;;;;;;1999.90;999.90;;;16.40;99.90;;;;;;5114140;28;20197;-75
2021/06/24 01:31:10;;;;;;;1999.90;999.90;;;16.40;99.90;;;;;;5097233;28;20665;-75
2021/06/24 01:33:37;;;;;;;1999.90;999.90;;;16.30;99.90;;;;;;5096277;28;20225;-75
2021/06/24 01:36:05;;;;;;;1999.90;999.90;;;16.20;99.90;;;;;;5113978;28;20183;-75
2021/06/24 01:38:32;;;;;;;1999.90;999.90;;;16.30;99.90;;;;;;5114342;28;20621;-76
2021/06/24 01:40:57;;;;;;;1999.90;999.90;;;16.40;99.90;;;;;;5114038;28;20188;-75
2021/06/24 01:43:24;;;;;;;1999.90;999.90;;;16.50;99.90;;;;;;5113909;28;20227;-75
2021/06/24 01:45:55;;;;;;;1999.90;999.90;;;16.60;99.90;;;;;;5113766;28;20226;-75
2021/06/24 01:48:22;;;;;;;1999.90;999.90;;;16.60;99.90;;;;;;5113724;28;20196;-75
2021/06/24 01:50:48;;;;;;;1999.90;999.90;;;16.60;99.90;;;;;;5114515;28;20168;-75
2021/06/24 01:53:14;;;;;;;1999.90;999.90;;;16.50;99.90;;;;;;5097305;28;20168;-75
2021/06/24 01:55:41;;;;;;;1999.90;999.90;;;16.50;99.90;;;;;;5096882;28;20633;-75
2021/06/24 01:58:12;;;;;;;1999.90;999.90;;;16.50;99.90;;;;;;5113644;28;20232;-75
2021/06/24 02:00:41;;;;;;;1999.90;999.90;;;16.50;99.90;;;;;;5113600;28;20167;-76
2021/06/24 02:03:07;;;;;;;1999.90;999.90;;;16.50;99.90;;;;;;5113556;28;20177;-75
2021/06/24 02:05:32;;;;;;;1999.90;999.90;;;16.50;99.90;;;;;;5113272;28;20293;-75
2021/06/24 02:07:58;;;;;;;1999.90;999.90;;;16.40;99.90;;;;;;5113752;28;20201;-75
2021/06/24 02:10:24;;;;;;;1999.90;999.90;;;16.40;99.90;;;;;;5105615;28;20537;-76
2021/06/24 02:12:50;;;;;;;1999.90;999.90;;;16.40;99.90;;;;;;5114114;28;20203;-76
2021/06/24 02:15:16;;;;;;;1999.90;999.90;;;16.40;99.90;;;;;;5114859;28;20224;-75
2021/06/24 02:17:41;;;;;;;1999.90;999.90;;;16.50;99.90;;;;;;5093172;28;20681;-76
2021/06/24 02:20:10;;;;;;;1999.90;999.90;;;16.50;99.90;;;;;;5112211;22;20222;-78
2021/06/24 02:22:36;;;;;;;1999.90;999.90;;;16.40;99.90;;;;;;5101919;28;20591;-78
2021/06/24 02:25:04;;;;;;;1999.90;999.90;;;16.40;99.90;;;;;;5113415;28;20672;-76
2021/06/24 02:27:30;;;;;;;1999.90;999.90;;;16.40;99.90;;;;;;5095816;28;20229;-76
2021/06/24 02:29:56;;;;;;;1999.90;999.90;;;16.50;99.90;;;;;;5081589;28;20194;-76
2021/06/24 02:32:21;;;;;;;1999.90;999.90;;;16.50;99.90;;;;;;5094754;28;20651;-76
2021/06/24 02:34:47;;;;;;;1999.90;999.90;;;16.50;99.90;;;;;;5093828;28;20264;-76
2021/06/24 02:37:14;;;;;;;1999.90;999.90;;;16.40;99.90;;;;;;5094742;28;20169;-76
2021/06/24 02:39:40;;;;;;;1999.90;999.90;;;16.30;99.90;;;;;;5075976;28;20203;-76
2021/06/24 02:42:06;;;;;;;1999.90;999.90;;;16.40;99.90;;;;;;5094720;28;20185;-76
2021/06/24 02:44:31;;;;;;;1999.90;999.90;;;16.30;99.90;;;;;;5094359;28;20203;-76
2021/06/24 02:46:57;;;;;;;1999.90;999.90;;;16.20;99.90;;;;;;5094410;28;20165;-76
2021/06/24 02:49:23;;;;;;;1999.90;999.90;;;16.20;99.90;;;;;;5076774;28;20204;-76
2021/06/24 02:51:48;;;;;;;1999.90;999.90;;;16.20;99.90;;;;;;5076180;28;20668;-76
2021/06/24 02:54:18;;;;;;;1999.90;999.90;;;16.20;99.90;;;;;;5094697;28;20173;-76
2021/06/24 02:56:44;;;;;;;1999.90;999.90;;;16.20;99.90;;;;;;5094205;28;20671;-77
2021/06/24 02:59:11;;;;;;;1999.90;999.90;;;16.20;99.90;;;;;;5094201;28;20705;-76
2021/06/24 03:01:39;;;;;;;1999.90;999.90;;;16.20;99.90;;;;;;5094255;28;20172;-77
2021/06/24 03:04:09;;;;;;;1999.90;999.90;;;16.20;99.90;;;;;;5094228;28;20631;-76
2021/06/24 03:06:35;;;;;;;1999.90;999.90;;;16.20;99.90;;;;;;5094068;28;20666;-76
2021/06/24 03:09:03;;;;;;;1999.90;999.90;;;16.20;99.90;;;;;;5075863;28;20194;-76
2021/06/24 03:11:28;;;;;;;1999.90;999.90;;;16.30;99.90;;;;;;5093995;28;20202;-77
2021/06/24 03:13:54;;;;;;;1999.90;999.90;;;16.30;99.90;;;;;;5075792;28;20687;-76
2021/06/24 03:16:20;;;;;;;1999.90;999.90;;;16.30;99.90;;;;;;5093584;28;20182;-76
2021/06/24 03:18:48;;;;;;;1999.90;999.90;;;16.20;99.90;;;;;;5075803;28;20218;-76
2021/06/24 03:21:15;;;;;;;1999.90;999.90;;;16.20;99.90;;;;;;5093839;28;20204;-76
2021/06/24 03:23:41;;;;;;;1999.90;999.90;;;16.20;99.90;;;;;;5075665;28;20667;-76
2021/06/24 03:26:06;;;;;;;1999.90;999.90;;;16.30;99.90;;;;;;5075430;28;20230;-76
2021/06/24 03:28:32;;;;;;;1999.90;999.90;;;16.30;99.90;;;;;;5075471;28;20192;-75
2021/06/24 03:30:58;;;;;;;1999.90;999.90;;;16.30;99.90;;;;;;5078917;28;20223;-77
2021/06/24 03:33:25;;;;;;;1999.90;999.90;;;16.30;99.90;;;;;;5093318;28;20255;-77
2021/06/24 03:35:51;;;;;;;1999.90;999.90;;;16.20;99.90;;;;;;5093523;28;20172;-76
2021/06/24 03:38:17;;;;;;;1999.90;999.90;;;16.10;99.90;;;;;;5093506;28;20541;-76
2021/06/24 03:40:43;;;;;;;1999.90;999.90;;;16.00;99.90;;;;;;5092809;28;20177;-76
2021/06/24 03:43:09;;;;;;;1999.90;999.90;;;16.00;99.90;;;;;;5087834;28;20173;-76
2021/06/24 03:45:37;;;;;;;1999.90;999.90;;;16.00;99.90;;;;;;5069837;28;20189;-77
2021/06/24 03:48:03;;;;;;;1999.90;999.90;;;16.00;99.90;;;;;;5091633;28;20538;-76
2021/06/24 03:50:29;;;;;;;1999.90;999.90;;;15.90;99.90;;;;;;5074310;28;20193;-77
2021/06/24 03:52:54;;;;;;;1999.90;999.90;;;15.90;99.90;;;;;;5070846;28;20237;-77
2021/06/24 03:55:35;;;;;;;1999.90;999.90;;;15.80;99.90;;;;;;5091751;28;20176;-77
2021/06/24 03:58:04;;;;;;;1999.90;999.90;;;15.80;99.90;;;;;;5080328;28;20172;-76
2021/06/24 04:00:32;;;;;;;1999.90;999.90;;;15.80;99.90;;;;;;5091750;28;20621;-77
2021/06/24 04:02:58;;;;;;;1999.90;999.90;;;15.90;99.90;;;;;;5091978;28;20267;-76
2021/06/24 04:05:24;;;;;;;1999.90;999.90;;;15.80;99.90;;;;;;5074009;28;20283;-76
2021/06/24 04:07:49;;;;;;;1999.90;999.90;;;15.80;99.90;;;;;;5091247;28;20182;-76
2021/06/24 04:10:15;;;;;;;1999.90;999.90;;;15.80;99.90;;;;;;5090844;28;20188;-76
2021/06/24 04:12:41;;;;;;;1999.90;999.90;;;15.70;99.90;;;;;;5092491;28;20250;-76
2021/06/24 04:15:07;;;;;;;1999.90;999.90;;;15.70;99.90;;;;;;5092522;28;20269;-76
2021/06/24 04:17:33;;;;;;;1999.90;999.90;;;15.60;99.90;;;;;;5092899;28;20685;-76
2021/06/24 04:19:59;;;;;;;1999.90;999.90;;;15.70;99.90;;;;;;5091438;28;20295;-76
2021/06/24 04:22:24;;;;;;;1999.90;999.90;;;15.80;99.90;;;;;;5074592;28;20264;-76
2021/06/24 04:24:50;;;;;;;1999.90;999.90;;;15.80;99.90;;;;;;5074189;28;20751;-76
2021/06/24 04:27:16;;;;;;;1999.90;999.90;;;15.80;99.90;;;;;;5093078;28;20212;-76
2021/06/24 04:29:42;;;;;;;1999.90;999.90;;;15.80;99.90;;;;;;5094614;28;20250;-76
2021/06/24 04:32:08;;;;;;;1999.90;999.90;;;15.70;99.90;;;;;;5079045;28;20176;-76
2021/06/24 04:34:33;;;;;;;1999.90;999.90;;;15.80;99.90;;;;;;5097121;28;20271;-76
2021/06/24 04:36:59;;;;;;;1999.90;999.90;;;15.90;99.90;;;;;;5097039;28;20180;-76
2021/06/24 04:39:24;;;;;;;1999.90;999.90;;;16.10;99.90;;;;;;5096308;28;20193;-76
2021/06/24 04:41:50;;;;;;;1999.90;999.90;;;16.10;99.90;;;;;;5094498;28;20181;-77
2021/06/24 04:44:16;;;;;;;1999.90;999.90;;;16.10;99.90;;;;;;5077641;28;20190;-76
2021/06/24 04:46:42;;;;;;;1999.90;999.90;;;16.10;99.90;;;;;;5096670;28;20271;-76
2021/06/24 04:49:07;;;;;;;1999.90;999.90;;;16.10;99.90;;;;;;5096214;28;20566;-76
2021/06/24 04:51:33;;;;;;;1999.90;999.90;;;16.00;99.90;;;;;;5097257;28;20255;-81
2021/06/24 04:53:59;;;;;;;1999.90;999.90;;;16.00;99.90;;;;;;5099960;28;20607;-82
2021/06/24 04:56:24;;;;;;;1999.90;999.90;;;16.10;99.90;;;;;;5081093;28;20282;-81
2021/06/24 04:58:50;;;;;;;1999.90;999.90;;;16.10;99.90;;;;;;5099860;28;20200;-81
2021/06/24 05:01:16;;;;;;;1999.90;999.90;;;16.00;99.90;;;;;;5099874;28;20537;-80
2021/06/24 05:03:41;;;;;;;1999.90;999.90;;;16.10;99.90;;;;;;5100613;28;20201;-81
2021/06/24 05:06:09;;;;;;;1999.90;999.90;;;16.30;99.90;;;;;;5099362;28;20738;-80
2021/06/24 05:08:35;;;;;;;1999.90;999.90;;;16.40;99.90;;;;;;5069269;28;20223;-79
2021/06/24 05:11:01;;;;;;;1999.90;999.90;;;16.40;99.90;;;;;;5098507;28;20186;-80
2021/06/24 05:13:27;;;;;;;1999.90;999.90;;;16.40;99.90;;;;;;5099261;28;20179;-80
2021/06/24 05:15:53;;;;;;;1999.90;999.90;;;16.50;99.90;;;;;;5099446;28;20184;-80
2021/06/24 05:18:19;;;;;;;1999.90;999.90;;;16.60;99.90;;;;;;5099441;28;20252;-80
2021/06/24 05:20:46;;;;;;;1999.90;999.90;;;16.60;99.90;;;;;;5084212;28;20206;-81
2021/06/24 05:23:16;;;;;;;1999.90;999.90;;;16.70;99.90;;;;;;5087511;28;20587;-80
2021/06/24 05:25:43;;;;;;;1999.90;999.90;;;16.70;99.90;;;;;;5079178;28;20240;-80
2021/06/24 05:28:09;;;;;;;1999.90;999.90;;;16.60;99.90;;;;;;5079068;28;20544;-80
2021/06/24 05:30:36;;;;;;;1999.90;999.90;;;16.60;99.90;;;;;;5090220;28;20176;-80
2021/06/24 05:33:02;;;;;;;1999.90;999.90;;;16.50;99.90;;;;;;5095042;28;20254;-80
2021/06/24 05:35:28;;;;;;;1999.90;999.90;;;16.50;99.90;;;;;;5078907;28;20558;-80
2021/06/24 05:37:53;;;;;;;1999.90;999.90;;;16.50;99.90;;;;;;5078187;28;20202;-80
2021/06/24 05:40:20;;;;;;;1999.90;999.90;;;16.50;99.90;;;;;;5085161;28;20250;-80
2021/06/24 05:42:46;;;;;;;1999.90;999.90;;;16.40;99.90;;;;;;5098676;28;20174;-80
2021/06/24 05:45:12;;;;;;;1999.90;999.90;;;16.40;99.90;;;;;;5098104;28;20202;-80
2021/06/24 05:47:38;;;;;;;1999.90;999.90;;;16.40;99.90;;;;;;5086636;28;20192;-80
2021/06/24 05:50:04;;;;;;;1999.90;999.90;;;16.30;99.90;;;;;;5092606;28;20206;-80
2021/06/24 05:52:30;;;;;;;1999.90;999.90;;;16.40;99.90;;;;;;5087682;28;20227;-79
2021/06/24 05:54:55;;;;;;;1999.90;999.90;;;16.40;99.90;;;;;;5097609;28;20249;-81
2021/06/24 05:57:21;;;;;;;1999.90;999.90;;;16.40;99.90;;;;;;5075160;28;20193;-80
2021/06/24 05:59:47;;;;;;;1999.90;999.90;;;16.40;99.90;;;;;;5071644;28;20211;-80
2021/06/24 06:02:12;;;;;;;1999.90;999.90;;;16.40;99.90;;;;;;5080880;28;20209;-80
2021/06/24 06:04:38;;;;;;;1999.90;999.90;;;16.40;99.90;;;;;;5095297;28;20626;-81
2021/06/24 06:07:04;;;;;;;1999.90;999.90;;;16.40;99.90;;;;;;5087016;28;20624;-81
2021/06/24 06:09:30;;;;;;;1999.90;999.90;;;16.50;99.90;;;;;;5093715;28;20190;-80
2021/06/24 06:11:55;;;;;;;1999.90;999.90;;;16.60;99.90;;;;;;5100847;28;20179;-80
2021/06/24 06:14:21;;;;;;;1999.90;999.90;;;16.70;99.90;;;;;;5098080;28;20649;-80
2021/06/24 06:16:47;;;;;;;1999.90;999.90;;;16.70;99.90;;;;;;5097671;28;20585;-80
2021/06/24 06:19:13;;;;;;;1999.90;999.90;;;16.70;99.90;;;;;;5097541;28;20205;-81
2021/06/24 06:21:39;;;;;;;1999.90;999.90;;;16.70;99.90;;;;;;5079034;28;20173;-80
2021/06/24 06:24:06;;;;;;;1999.90;999.90;;;16.70;99.90;;;;;;5077111;28;20186;-80
2021/06/24 06:26:31;;;;;;;1999.90;999.90;;;16.70;99.90;;;;;;5076785;28;20207;-80
2021/06/24 06:29:03;;;;;;;1999.90;999.90;;;16.70;99.90;;;;;;5096173;28;20245;-81
2021/06/24 06:31:30;;;;;;;1999.90;999.90;;;16.70;99.90;;;;;;5078963;28;20561;-81
2021/06/24 06:33:56;;;;;;;1999.90;999.90;;;16.70;99.90;;;;;;5073530;28;20175;-80
2021/06/24 06:36:22;;;;;;;1999.90;999.90;;;16.70;99.90;;;;;;5076915;28;20190;-80
2021/06/24 06:38:48;;;;;;;1999.90;999.90;;;16.70;99.90;;;;;;5076562;28;20562;-80
2021/06/24 06:41:13;;;;;;;1999.90;999.90;;;16.70;99.90;;;;;;5059360;28;20259;-80
2021/06/24 06:43:39;;;;;;;1999.90;999.90;;;16.60;99.90;;;;;;5074304;28;20177;-79
2021/06/24 06:46:05;;;;;;;1999.90;999.90;;;16.60;99.90;;;;;;5079744;28;20196;-80
2021/06/24 06:48:31;;;;;;;1999.90;999.90;;;16.60;99.90;;;;;;5097362;28;20227;-81
2021/06/24 06:50:57;;;;;;;1999.90;999.90;;;16.40;99.90;;;;;;5097029;28;20255;-80
2021/06/24 06:53:23;;;;;;;1999.90;999.90;;;16.40;99.90;;;;;;5096538;28;20179;-80
2021/06/24 06:55:49;;;;;;;1999.90;999.90;;;16.50;99.90;;;;;;5097115;28;20643;-80
2021/06/24 06:58:15;;;;;;;1999.90;999.90;;;16.60;99.90;;;;;;5096918;28;20268;-80
2021/06/24 07:00:41;;;;;;;1999.90;999.90;;;16.60;99.90;;;;;;5096434;28;20206;-80
2021/06/24 07:03:07;;;;;;;1999.90;999.90;;;16.60;99.90;;;;;;5079139;28;20170;-81
2021/06/24 07:05:33;;;;;;;1999.90;999.90;;;16.70;99.90;;;;;;5097119;28;20220;-81
2021/06/24 07:07:59;;;;;;;1999.90;999.90;;;16.60;99.90;;;;;;5078098;28;20179;-80
2021/06/24 07:10:25;;;;;;;1999.90;999.90;;;16.40;99.90;;;;;;5096325;28;20198;-80
2021/06/24 07:12:51;;;;;;;1999.90;999.90;;;16.30;99.90;;;;;;5096167;28;20171;-80
2021/06/24 07:15:17;;;;;;;1999.90;999.90;;;16.20;99.90;;;;;;5096464;28;20178;-80
2021/06/24 07:17:44;;;;;;;1999.90;999.90;;;16.30;99.90;;;;;;5095419;28;20264;-80
2021/06/24 07:20:11;;;;;;;1999.90;999.90;;;16.40;99.90;;;;;;5083298;28;20276;-80
2021/06/24 07:22:37;;;;;;;1999.90;999.90;;;16.40;99.90;;;;;;5096522;28;20234;-80
2021/06/24 07:25:04;;;;;;;1999.90;999.90;;;16.50;99.90;;;;;;5096248;28;20200;-80
2021/06/24 07:27:30;;;;;;;1999.90;999.90;;;16.60;99.90;;;;;;5085185;28;20663;-80
2021/06/24 07:29:56;;;;;;;1999.90;999.90;;;16.50;99.90;;;;;;5090455;28;20274;-80
2021/06/24 07:32:21;;;;;;;1999.90;999.90;;;16.50;99.90;;;;;;5086727;28;20183;-80
2021/06/24 07:34:47;;;;;;;1999.90;999.90;;;16.40;99.90;;;;;;5080458;28;20180;-80
2021/06/24 07:37:13;;;;;;;1999.90;999.90;;;16.30;99.90;;;;;;5083903;28;20615;-80
2021/06/24 07:39:38;;;;;;;1999.90;999.90;;;16.30;99.90;;;;;;5094970;28;20196;-80
2021/06/24 07:42:04;;;;;;;1999.90;999.90;;;16.40;99.90;;;;;;5095703;28;20177;-80
2021/06/24 07:44:30;;;;;;;1999.90;999.90;;;16.60;99.90;;;;;;5096218;28;20208;-80
2021/06/24 07:46:56;;;;;;;1999.90;999.90;;;16.40;99.90;;;;;;5096107;28;20615;-80
2021/06/24 07:49:22;;;;;;;1999.90;999.90;;;16.50;99.90;;;;;;5087057;28;20237;-80
2021/06/24 07:51:47;;;;;;;1999.90;999.90;;;16.60;99.90;;;;;;5091695;28;20176;-80
2021/06/24 07:54:13;;;;;;;1999.90;999.90;;;16.60;99.90;;;;;;5096207;28;20266;-81
2021/06/24 07:56:39;;;;;;;1999.90;999.90;;;16.50;99.90;;;;;;5078093;28;20180;-80
2021/06/24 07:59:05;;;;;;;1999.90;999.90;;;16.60;99.90;;;;;;5090676;28;20290;-79
2021/06/24 08:01:30;;;;;;;1999.90;999.90;;;16.50;99.90;;;;;;5090681;28;20201;-80
2021/06/24 08:03:56;;;;;;;1999.90;999.90;;;16.40;99.90;;;;;;5096139;28;20170;-80
2021/06/24 08:06:22;;;;;;;1999.90;999.90;;;16.50;99.90;;;;;;5081324;28;20669;-80
2021/06/24 08:08:47;;;;;;;1999.90;999.90;;;16.60;99.90;;;;;;5079047;28;20277;-80
2021/06/24 08:11:13;;;;;;;1999.90;999.90;;;16.80;99.90;;;;;;5096265;28;20253;-81
2021/06/24 08:13:39;;;;;;;1999.90;999.90;;;16.70;99.90;;;;;;5088660;28;20173;-80
2021/06/24 08:16:05;;;;;;;1999.90;999.90;;;16.60;99.90;;;;;;5090613;28;20236;-80
2021/06/24 08:18:34;;;;;;;1999.90;999.90;;;16.70;99.90;;;;;;5097034;28;20208;-77
2021/06/24 08:21:01;;;;;;;1999.90;999.90;;;16.90;99.90;;;;;;5092002;28;20189;-78
2021/06/24 08:23:27;;;;;;;1999.90;999.90;;;17.00;99.90;;;;;;5095660;28;20173;-78
2021/06/24 08:25:52;;;;;;;1999.90;999.90;;;17.10;99.90;;;;;;5078277;28;20194;-78
2021/06/24 08:28:18;;;;;;;1999.90;999.90;;;17.30;99.90;;;;;;5077262;28;20603;-78
2021/06/24 08:30:44;;;;;;;1999.90;999.90;;;17.40;99.90;;;;;;5095650;28;20748;-79
2021/06/24 08:33:13;;;;;;;1999.90;999.90;;;17.50;99.90;;;;;;5095763;28;20247;-78
2021/06/24 08:35:39;;;;;;;1999.90;999.90;;;17.60;99.90;;;;;;5095669;28;20178;-79
2021/06/24 08:38:05;;;;;;;1999.90;999.90;;;17.40;99.90;;;;;;5095642;28;20206;-77
2021/06/24 08:40:31;;;;;;;1999.90;999.90;;;17.50;99.90;;;;;;5077192;28;20741;-78
2021/06/24 08:42:56;;;;;;;1999.90;999.90;;;17.60;99.90;;;;;;5095223;28;20209;-77
2021/06/24 08:45:22;;;;;;;1999.90;999.90;;;17.90;99.90;;;;;;5095516;28;20227;-78
2021/06/24 08:47:51;;;;;;;1999.90;999.90;;;17.90;99.90;;;;;;5077330;28;20177;-78
2021/06/24 08:50:18;;;;;;;1999.90;999.90;;;17.90;99.90;;;;;;5095413;28;20207;-77
2021/06/24 08:52:48;;;;;;;1999.90;999.90;;;17.90;99.90;;;;;;5095871;28;20172;-77
2021/06/24 08:55:15;;;;;;;1999.90;999.90;;;18.10;99.90;;;;;;5096115;28;20187;-78
2021/06/24 08:57:40;;;;;;;1999.90;999.90;;;18.20;99.90;;;;;;5077443;28;20556;-78
2021/06/24 09:00:07;;;;;;;1999.90;999.90;;;18.30;99.90;;;;;;5095265;28;20278;-78
2021/06/24 09:02:54;;;;;;;1999.90;999.90;;;18.40;99.90;;;;;;5095722;28;20184;-78
2021/06/24 09:05:20;;;;;;;1999.90;999.90;;;18.70;99.90;;;;;;5095473;28;20219;-77
2021/06/24 09:07:55;;;;;;;1999.90;999.90;;;18.70;99.90;;;;;;5090634;28;20200;-78
2021/06/24 09:10:23;;;;;;;1999.90;999.90;;;18.40;99.90;;;;;;5086027;28;20251;-77
2021/06/24 09:12:57;;;;;;;1999.90;999.90;;;18.50;99.90;;;;;;5095019;28;20203;-77
2021/06/24 09:15:33;;;;;;;1999.90;999.90;;;18.40;99.90;;;;;;5096617;28;20180;-78
2021/06/24 09:17:59;;;;;;;1999.90;999.90;;;18.60;99.90;;;;;;5099235;28;20259;-78
2021/06/24 09:20:25;;;;;;;1999.90;999.90;;;18.60;99.90;;;;;;5098923;28;20313;-78
2021/06/24 09:23:11;;;;;;;1999.90;999.90;;;18.70;99.90;;;;;;5080351;28;20238;-78
2021/06/24 09:25:45;;;;;;;1999.90;999.90;;;18.80;99.90;;;;;;5088158;28;20232;-78
2021/06/24 09:28:11;;;;;;;1999.90;999.90;;;18.80;99.90;;;;;;5078481;28;20692;-78
2021/06/24 09:30:43;;;;;;;1999.90;999.90;;;18.80;99.90;;;;;;5060806;28;20240;-78
2021/06/24 09:33:14;;;;;;;1999.90;999.90;;;18.80;99.90;;;;;;5076919;28;20184;-78
2021/06/24 09:35:42;;;;;;;1999.90;999.90;;;18.80;99.90;;;;;;5070383;28;20193;-78
2021/06/24 09:38:14;;;;;;;1999.90;999.90;;;18.80;99.90;;;;;;5075328;28;20238;-79
2021/06/24 09:40:51;;;;;;;1999.90;999.90;;;19.00;99.90;;;;;;5096812;28;20176;-77
2021/06/24 09:43:31;;;;;;;1999.90;999.90;;;19.10;99.90;;;;;;5098174;28;20180;-78
2021/06/24 09:46:20;;;;;;;1999.90;999.90;;;19.30;99.90;;;;;;5087756;28;20204;-77
2021/06/24 09:49:00;;;;;;;1999.90;999.90;;;19.00;99.90;;;;;;5091577;28;20201;-78
2021/06/24 09:51:30;;;;;;;1999.90;999.90;;;19.00;99.90;;;;;;5076819;28;20183;-77
2021/06/24 09:54:05;;;;;;;1999.90;999.90;;;18.90;99.90;;;;;;5076778;28;20181;-78
2021/06/24 09:56:40;;;;;;;1999.90;999.90;;;19.10;99.90;;;;;;5084465;28;20187;-78
2021/06/24 09:59:07;;;;;;;1999.90;999.90;;;19.10;99.90;;;;;;5078890;28;20694;-77
2021/06/24 10:01:50;;;;;;;1999.90;999.90;;;19.20;99.90;;;;;;5097062;28;20203;-77
2021/06/24 10:04:27;;;;;;;1999.90;999.90;;;19.40;99.90;;;;;;5084090;28;20263;-77
2021/06/24 10:06:59;;;;;;;1999.90;999.90;;;19.40;99.90;;;;;;5096979;28;20272;-79
2021/06/24 10:09:25;;;;;;;1999.90;999.90;;;19.50;99.90;;;;;;5092834;28;20234;-77
2021/06/24 10:11:52;;;;;;;1999.90;999.90;;;19.50;99.90;;;;;;5089706;28;20675;-79
2021/06/24 10:14:19;;;;;;;1999.90;999.90;;;19.60;99.90;;;;;;5096793;28;20538;-78
2021/06/24 10:16:53;;;;;;;1999.90;999.90;;;19.70;99.90;;;;;;5078795;28;20181;-79
2021/06/24 10:19:24;;;;;;;1999.90;999.90;;;19.70;99.90;;;;;;5083516;28;20249;-80
2021/06/24 10:21:53;;;;;;;1999.90;999.90;;;19.80;99.90;;;;;;5078640;28;20665;-77
2021/06/24 10:24:31;;;;;;;1999.90;999.90;;;19.70;99.90;;;;;;5095509;28;20172;-78
2021/06/24 10:26:59;;;;;;;1999.90;999.90;;;19.70;99.90;;;;;;5097279;28;20180;-78
2021/06/24 10:29:37;;;;;;;1999.90;999.90;;;19.60;99.90;;;;;;5093271;28;20208;-77
2021/06/24 10:32:19;;;;;;;1999.90;999.90;;;19.80;99.90;;;;;;5082566;28;20222;-78
2021/06/24 10:34:50;;;;;;;1999.90;999.90;;;19.90;99.90;;;;;;5095916;28;20186;-78
2021/06/24 10:37:22;;;;;;;1999.90;999.90;;;19.90;99.90;;;;;;5096434;28;20176;-77
2021/06/24 10:39:48;;;;;;;1999.90;999.90;;;19.90;99.90;;;;;;5095784;28;20207;-78
2021/06/24 10:42:15;;;;;;;1999.90;999.90;;;19.90;99.90;;;;;;5095364;28;20176;-78
2021/06/24 10:44:47;;;;;;;1999.90;999.90;;;20.00;99.90;;;;;;5095150;28;20246;-77
2021/06/24 10:47:14;;;;;;;1999.90;999.90;;;20.20;99.90;;;;;;5075821;28;20532;-78
2021/06/24 10:49:40;;;;;;;1999.90;999.90;;;20.30;99.90;;;;;;5075251;28;20197;-76
2021/06/24 10:52:26;;;;;;;1999.90;999.90;;;20.40;99.90;;;;;;5075567;28;20184;-77
2021/06/24 10:54:53;;;;;;;1999.90;999.90;;;20.40;99.90;;;;;;5075668;28;20643;-77
2021/06/24 10:57:38;;;;;;;1999.90;999.90;;;20.40;99.90;;;;;;5076212;28;20187;-77
2021/06/24 11:00:43;;;;;;;1999.90;999.90;;;20.50;99.90;;;;;;5077620;28;20200;-78
2021/06/24 11:03:10;;;;;;;1999.90;999.90;;;20.70;99.90;;;;;;5095801;28;20176;-78
2021/06/24 11:05:48;;;;;;;1999.90;999.90;;;20.80;99.90;;;;;;5094288;28;20204;-77
2021/06/24 11:08:15;;;;;;;1999.90;999.90;;;20.90;99.90;;;;;;5085716;28;20176;-77
2021/06/24 11:10:57;;;;;;;1999.90;999.90;;;20.90;99.90;;;;;;5077511;28;20275;-77
2021/06/24 11:13:38;;;;;;;1999.90;999.90;;;20.90;99.90;;;;;;5095179;28;20662;-78
2021/06/24 11:16:27;;;;;;;1999.90;999.90;;;21.00;99.90;;;;;;5095654;28;20267;-78
2021/06/24 11:18:58;;;;;;;1999.90;999.90;;;21.10;99.90;;;;;;5095387;28;20224;-78
2021/06/24 11:21:30;;;;;;;1999.90;999.90;;;21.40;99.90;;;;;;5095560;28;20187;-78
2021/06/24 11:24:15;;;;;;;1999.90;999.90;;;21.70;99.90;;;;;;5095838;28;20603;-78
2021/06/24 11:26:44;;;;;;;1999.90;999.90;;;21.80;99.90;;;;;;5082681;28;20218;-78
2021/06/24 11:29:37;;;;;;;1999.90;999.90;;;21.90;99.90;;;;;;5077150;28;20196;-78
2021/06/24 11:32:12;;;;;;;1999.90;999.90;;;22.00;99.90;;;;;;5084407;28;20173;-78
2021/06/24 11:37:16;;;;;;;1999.90;999.90;;;22.10;99.90;;;;;;5095618;28;20180;-78
2021/06/24 11:40:02;;;;;;;1999.90;999.90;;;22.30;99.90;;;;;;5076986;28;20215;-78
2021/06/24 11:42:32;;;;;;;1999.90;999.90;;;22.40;99.90;;;;;;5095334;28;20187;-78
2021/06/24 11:45:00;;;;;;;1999.90;999.90;;;22.40;99.90;;;;;;5095205;28;20275;-78
2021/06/24 11:47:32;;;;;;;1999.90;999.90;;;22.60;99.90;;;;;;5095118;28;20176;-78
2021/06/24 12:04:05;;;;;;;1999.90;999.90;;;22.80;99.90;;;;;;5094916;28;20208;-77
2021/06/24 12:06:54;;;;;;;1999.90;999.90;;;22.80;99.90;;;;;;5094795;28;20200;-77
2021/06/24 12:09:22;;;;;;;1999.90;999.90;;;23.00;99.90;;;;;;5095007;28;20711;-77
2021/06/24 12:11:59;;;;;;;1999.90;999.90;;;23.00;99.90;;;;;;5094360;28;20179;-77
2021/06/24 12:14:39;;;;;;;1999.90;999.90;;;23.00;99.90;;;;;;5066789;28;20172;-77
2021/06/24 12:17:18;;;;;;;1999.90;999.90;;;22.90;99.90;;;;;;5087978;28;20180;-77
2021/06/24 12:19:51;;;;;;;1999.90;999.90;;;23.00;99.90;;;;;;5094741;28;20281;-78